Time;durP1;ratioP1;P1;durP2;ratioP2;P2;SDS_P1;SDS_P2;PMS_P1;PMS_P2;Temp;Humidity;BMP_temperature;BMP_pressure;BME280_temperature;BME280_humidity;BME280_pressure;Samples;Min_cycle;Max_cycle;Signal;HPM_P1;HPM_P2
2022/12/07 00:01:10;;;;;;;2.72;1.05;;;4.90;99.90;;;;;;5043213;28;20128;-81
2022/12/07 00:03:37;;;;;;;4.65;1.50;;;4.80;99.90;;;;;;5043316;28;20083;-81
2022/12/07 00:06:05;;;;;;;1.13;0.70;;;4.80;99.90;;;;;;5041561;28;20057;-81
2022/12/07 00:08:32;;;;;;;1.95;0.63;;;4.80;99.90;;;;;;5041767;28;20279;-79
2022/12/07 00:11:08;;;;;;;3.55;1.45;;;4.80;99.90;;;;;;5042359;28;20044;-79
2022/12/07 00:13:35;;;;;;;1.40;0.80;;;4.80;99.90;;;;;;5041444;28;20375;-82
2022/12/07 00:16:03;;;;;;;1.88;0.85;;;4.80;99.90;;;;;;5043617;28;20535;-77
2022/12/07 00:18:28;;;;;;;4.43;2.38;;;4.80;99.90;;;;;;5042409;28;20045;-78
2022/12/07 00:21:19;;;;;;;2.28;1.20;;;4.80;99.90;;;;;;5043167;28;20357;-82
2022/12/07 00:23:46;;;;;;;1.90;1.05;;;4.80;99.90;;;;;;5041066;28;20057;-81
2022/12/07 00:26:14;;;;;;;2.00;0.82;;;4.80;99.90;;;;;;5048878;28;20087;-81
2022/12/07 00:28:40;;;;;;;4.35;0.73;;;4.80;99.90;;;;;;5062741;28;20040;-81
2022/12/07 00:31:08;;;;;;;4.97;1.63;;;4.80;99.90;;;;;;5062885;28;20090;-78
2022/12/07 00:33:35;;;;;;;6.10;2.55;;;4.80;99.90;;;;;;5062796;28;20040;-79
2022/12/07 00:36:03;;;;;;;3.40;2.17;;;4.80;99.90;;;;;;5061444;28;20040;-80
2022/12/07 00:38:31;;;;;;;1.45;0.77;;;4.80;99.90;;;;;;5060476;28;20044;-82
2022/12/07 00:41:06;;;;;;;2.65;0.77;;;4.90;99.90;;;;;;5061118;28;20459;-82
2022/12/07 00:43:32;;;;;;;5.07;1.25;;;4.90;99.90;;;;;;5062764;28;20071;-81
2022/12/07 00:45:57;;;;;;;5.85;1.75;;;5.00;99.90;;;;;;5060599;28;20506;-82
2022/12/07 00:48:24;;;;;;;2.92;1.27;;;4.90;99.90;;;;;;5061032;28;20045;-79
2022/12/07 00:50:50;;;;;;;8.15;0.95;;;4.90;99.90;;;;;;5062478;28;20040;-81
2022/12/07 00:53:16;;;;;;;1.02;0.90;;;4.90;99.90;;;;;;5061573;28;20044;-81
2022/12/07 00:55:42;;;;;;;1.25;0.57;;;4.90;99.90;;;;;;5060102;28;20643;-80
2022/12/07 00:58:08;;;;;;;1.75;0.40;;;4.80;99.90;;;;;;5052431;28;20172;-77
2022/12/07 01:00:36;;;;;;;2.03;0.95;;;4.80;99.90;;;;;;5042622;28;20120;-81
2022/12/07 01:03:03;;;;;;;0.55;0.30;;;4.80;99.90;;;;;;5040689;28;20057;-81
2022/12/07 01:05:28;;;;;;;1.48;0.80;;;4.70;99.90;;;;;;5042707;28;20053;-77
2022/12/07 01:07:54;;;;;;;1.17;0.70;;;4.70;99.90;;;;;;5042793;28;20049;-78
2022/12/07 01:10:20;;;;;;;4.38;1.15;;;4.70;99.90;;;;;;5040242;28;20051;-82
2022/12/07 01:12:45;;;;;;;1.85;0.60;;;4.70;99.90;;;;;;5042275;28;20707;-81
2022/12/07 01:15:11;;;;;;;1.70;0.88;;;4.70;99.90;;;;;;5042024;28;20885;-77
2022/12/07 01:17:37;;;;;;;4.15;1.65;;;4.70;99.90;;;;;;5041163;28;20036;-80
2022/12/07 01:20:03;;;;;;;1.98;1.25;;;4.80;99.90;;;;;;5041565;28;20475;-77
2022/12/07 01:22:29;;;;;;;5.70;1.75;;;4.80;99.90;;;;;;5041781;28;20063;-80
2022/12/07 01:24:55;;;;;;;3.47;1.48;;;4.80;99.90;;;;;;5039744;28;20041;-77
2022/12/07 01:27:21;;;;;;;11.48;2.15;;;4.80;99.90;;;;;;5057410;28;20182;-82
2022/12/07 01:29:46;;;;;;;6.03;1.65;;;4.80;99.90;;;;;;5060826;28;20248;-81
2022/12/07 01:32:12;;;;;;;3.78;1.83;;;4.80;99.90;;;;;;5061780;28;20607;-79
2022/12/07 01:34:38;;;;;;;3.35;1.15;;;4.80;99.90;;;;;;5060481;28;20127;-82
2022/12/07 01:37:04;;;;;;;5.38;2.00;;;4.70;99.90;;;;;;5061620;28;20127;-82
2022/12/07 01:39:29;;;;;;;4.57;1.52;;;4.70;99.90;;;;;;5059375;28;20380;-77
2022/12/07 01:41:55;;;;;;;1.92;0.88;;;4.70;99.90;;;;;;5060887;28;20044;-79
2022/12/07 01:44:32;;;;;;;2.40;1.00;;;4.70;99.90;;;;;;5061786;28;20826;-81
2022/12/07 01:47:03;;;;;;;1.80;0.82;;;4.70;99.90;;;;;;5060915;28;20072;-79
2022/12/07 01:49:29;;;;;;;11.23;1.95;;;4.70;99.90;;;;;;5062000;28;20123;-79
2022/12/07 01:52:08;;;;;;;6.00;1.05;;;4.70;99.90;;;;;;5064310;28;20136;-76
2022/12/07 01:54:34;;;;;;;1.65;1.30;;;4.70;99.90;;;;;;5064782;28;20127;-79
2022/12/07 01:57:01;;;;;;;2.80;1.63;;;4.70;99.90;;;;;;5065000;28;20067;-78
2022/12/07 01:59:26;;;;;;;5.13;2.05;;;4.70;99.90;;;;;;5065390;28;20063;-82
2022/12/07 02:01:54;;;;;;;14.05;1.63;;;4.70;99.90;;;;;;5047738;28;20040;-81
2022/12/07 02:04:20;;;;;;;1.65;1.30;;;4.60;99.90;;;;;;5064360;28;20375;-77
2022/12/07 02:06:47;;;;;;;3.22;1.85;;;4.60;99.90;;;;;;5066591;28;20048;-80
2022/12/07 02:09:12;;;;;;;1.45;0.90;;;4.60;99.90;;;;;;5064956;28;20048;-82
2022/12/07 02:11:39;;;;;;;2.17;0.98;;;4.60;99.90;;;;;;5065353;28;20435;-81
2022/12/07 02:14:05;;;;;;;2.53;1.40;;;4.60;99.90;;;;;;5064986;28;20056;-79
2022/12/07 02:16:52;;;;;;;4.28;1.50;;;4.60;99.90;;;;;;5066126;28;20082;-76
2022/12/07 02:19:35;;;;;;;3.83;1.85;;;4.60;99.90;;;;;;5064911;28;20094;-80
2022/12/07 02:22:19;;;;;;;8.30;1.15;;;4.60;99.90;;;;;;5063428;28;20055;-82
2022/12/07 02:25:06;;;;;;;5.45;0.90;;;4.60;99.90;;;;;;5064067;28;20087;-81
2022/12/07 02:28:05;;;;;;;1.88;1.38;;;4.60;99.90;;;;;;5048882;28;20272;-80
2022/12/07 02:30:34;;;;;;;6.18;1.73;;;4.60;99.90;;;;;;5044563;28;20041;-78
2022/12/07 02:33:15;;;;;;;7.72;2.00;;;4.60;99.90;;;;;;5044181;28;20109;-81
2022/12/07 02:35:56;;;;;;;2.20;1.63;;;4.70;99.90;;;;;;5045010;28;20084;-82
2022/12/07 02:38:34;;;;;;;14.07;2.08;;;4.70;99.90;;;;;;5042396;28;20077;-77
2022/12/07 02:41:09;;;;;;;2.97;1.35;;;4.70;99.90;;;;;;5044828;28;20144;-82
2022/12/07 02:43:41;;;;;;;4.30;2.70;;;4.80;99.90;;;;;;5046238;28;20037;-80
2022/12/07 02:46:13;;;;;;;1.85;1.00;;;4.80;99.90;;;;;;5044312;28;20148;-82
2022/12/07 02:48:59;;;;;;;0.88;0.88;;;4.80;99.90;;;;;;5045321;28;20055;-80
2022/12/07 02:51:25;;;;;;;6.45;1.10;;;4.80;99.90;;;;;;5044248;28;20053;-77
2022/12/07 02:53:51;;;;;;;3.22;1.20;;;4.90;99.90;;;;;;5043110;28;20051;-82
2022/12/07 02:56:43;;;;;;;1.40;0.63;;;4.80;99.90;;;;;;5044971;28;20491;-76
2022/12/07 02:59:51;;;;;;;5.63;1.73;;;4.80;99.90;;;;;;5044421;28;20095;-80
2022/12/07 03:03:07;;;;;;;2.33;0.70;;;4.80;99.90;;;;;;5046448;28;20052;-82
2022/12/07 03:05:39;;;;;;;0.68;0.63;;;4.80;99.90;;;;;;5044005;28;20080;-81
2022/12/07 03:08:22;;;;;;;1.93;0.80;;;4.80;99.90;;;;;;5043659;28;20041;-76
2022/12/07 03:11:04;;;;;;;3.03;0.63;;;4.80;99.90;;;;;;5045757;28;20051;-79
2022/12/07 03:13:48;;;;;;;2.38;1.00;;;4.80;99.90;;;;;;5043858;28;20052;-76
2022/12/07 03:16:23;;;;;;;2.33;0.70;;;4.80;99.90;;;;;;5043325;28;20041;-81
2022/12/07 03:19:10;;;;;;;2.42;1.00;;;4.70;99.90;;;;;;5026711;28;20049;-76
2022/12/07 03:21:40;;;;;;;5.10;1.63;;;4.70;99.90;;;;;;5045566;28;20063;-78
2022/12/07 03:24:17;;;;;;;2.08;0.80;;;4.70;99.90;;;;;;5043492;28;20495;-78
2022/12/07 03:26:51;;;;;;;2.92;1.40;;;4.70;99.90;;;;;;5055622;28;20082;-80
2022/12/07 03:29:31;;;;;;;3.42;1.42;;;4.70;99.90;;;;;;5064391;28;20040;-82
2022/12/07 03:32:04;;;;;;;2.92;0.95;;;4.70;99.90;;;;;;5062777;28;20086;-78
2022/12/07 03:34:48;;;;;;;2.30;0.73;;;4.70;99.90;;;;;;5064072;28;20048;-77
2022/12/07 03:37:27;;;;;;;2.53;0.93;;;4.80;99.90;;;;;;5064578;28;20556;-80
2022/12/07 03:40:25;;;;;;;5.50;0.98;;;4.80;99.90;;;;;;5061085;28;20177;-80
2022/12/07 03:42:52;;;;;;;2.60;1.08;;;4.80;99.90;;;;;;5062769;28;20538;-78
2022/12/07 03:45:19;;;;;;;6.25;0.90;;;4.80;99.90;;;;;;5064713;28;20459;-81
2022/12/07 03:47:57;;;;;;;5.13;0.82;;;4.80;99.90;;;;;;5063030;28;20475;-80
2022/12/07 03:50:44;;;;;;;1.17;0.82;;;4.80;99.90;;;;;;5062528;28;20041;-79
2022/12/07 03:53:22;;;;;;;1.95;1.42;;;4.90;99.90;;;;;;5062478;28;20049;-78
2022/12/07 03:55:49;;;;;;;1.70;1.33;;;4.80;99.90;;;;;;5062532;28;20423;-80
2022/12/07 03:58:18;;;;;;;3.75;1.20;;;4.90;99.90;;;;;;5063657;28;20052;-77
2022/12/07 04:00:45;;;;;;;3.65;1.10;;;4.90;99.90;;;;;;5064241;28;20036;-78
2022/12/07 04:03:11;;;;;;;3.10;0.63;;;4.80;99.90;;;;;;5063736;28;20047;-80
2022/12/07 04:05:38;;;;;;;3.70;1.25;;;4.80;99.90;;;;;;5062872;28;20063;-82
2022/12/07 04:08:03;;;;;;;5.10;1.35;;;4.80;99.90;;;;;;5060858;28;20076;-79
2022/12/07 04:10:29;;;;;;;8.48;1.33;;;4.80;99.90;;;;;;5063331;28;20121;-79
2022/12/07 04:12:55;;;;;;;2.67;1.40;;;4.80;99.90;;;;;;5062874;28;20044;-81
2022/12/07 04:15:21;;;;;;;1.83;0.75;;;4.70;99.90;;;;;;5062949;28;20044;-81
2022/12/07 04:17:46;;;;;;;12.15;1.13;;;4.70;99.90;;;;;;5063496;28;20494;-76
2022/12/07 04:20:12;;;;;;;3.38;0.82;;;4.70;99.90;;;;;;5061981;28;20048;-79
2022/12/07 04:22:38;;;;;;;5.80;1.38;;;4.70;99.90;;;;;;5061279;28;20141;-82
2022/12/07 04:25:04;;;;;;;2.33;0.70;;;4.60;99.90;;;;;;5060755;28;20052;-78
2022/12/07 04:27:29;;;;;;;1.98;1.17;;;4.60;99.90;;;;;;5044730;28;20491;-79
2022/12/07 04:29:55;;;;;;;2.30;1.13;;;4.60;99.90;;;;;;5041222;28;20037;-81
2022/12/07 04:32:22;;;;;;;3.53;1.58;;;4.60;99.90;;;;;;5025024;28;20438;-81
2022/12/07 04:34:47;;;;;;;22.63;2.08;;;4.60;99.90;;;;;;5041592;28;20508;-78
2022/12/07 04:37:13;;;;;;;1.40;1.10;;;4.60;99.90;;;;;;5043322;28;20142;-80
2022/12/07 04:39:39;;;;;;;3.78;2.38;;;4.60;99.90;;;;;;5024003;28;20419;-81
2022/12/07 04:42:04;;;;;;;4.10;0.85;;;4.50;99.90;;;;;;5023792;28;20048;-79
2022/12/07 04:44:30;;;;;;;7.25;1.95;;;4.50;99.90;;;;;;5041854;28;20510;-77
2022/12/07 04:46:56;;;;;;;11.60;1.00;;;4.50;99.90;;;;;;5041178;28;20040;-81
2022/12/07 04:49:22;;;;;;;3.55;2.05;;;4.50;99.90;;;;;;5041128;28;20063;-81
2022/12/07 04:51:48;;;;;;;1.17;0.70;;;4.50;99.90;;;;;;5043070;28;20033;-75
2022/12/07 04:54:15;;;;;;;6.80;1.95;;;4.50;99.90;;;;;;5041089;28;20044;-77
2022/12/07 04:56:41;;;;;;;1.67;1.20;;;4.50;99.90;;;;;;5047914;28;20492;-81
2022/12/07 04:59:07;;;;;;;14.68;1.60;;;4.50;99.90;;;;;;5059168;28;20295;-75
2022/12/07 05:01:33;;;;;;;6.25;1.98;;;4.60;99.90;;;;;;5060992;28;20072;-76
2022/12/07 05:04:00;;;;;;;1.30;0.88;;;4.60;99.90;;;;;;5059363;28;20147;-81
2022/12/07 05:06:26;;;;;;;5.57;1.13;;;4.60;99.90;;;;;;5061037;28;20139;-81
2022/12/07 05:08:52;;;;;;;2.97;1.15;;;4.60;99.90;;;;;;5059857;28;20102;-77
2022/12/07 05:14:04;;;;;;;2.90;1.00;;;4.60;99.90;;;;;;5062571;28;20051;-76
2022/12/07 05:16:30;;;;;;;6.78;2.42;;;4.70;99.90;;;;;;5060466;28;20043;-77
2022/12/07 05:18:56;;;;;;;2.38;1.10;;;4.70;99.90;;;;;;5053611;28;20135;-78
2022/12/07 05:21:22;;;;;;;0.98;0.55;;;4.70;99.90;;;;;;5058682;28;20049;-77
2022/12/07 05:23:47;;;;;;;3.65;1.02;;;4.70;99.90;;;;;;5041475;28;20088;-80
2022/12/07 05:26:13;;;;;;;1.73;1.13;;;4.70;99.90;;;;;;5058577;28;20071;-81
2022/12/07 05:28:39;;;;;;;1.50;0.80;;;4.70;99.90;;;;;;5063872;28;20074;-78
2022/12/07 05:31:04;;;;;;;9.68;1.40;;;4.60;99.90;;;;;;5062763;28;20123;-82
2022/12/07 05:33:30;;;;;;;6.80;1.65;;;4.60;99.90;;;;;;5062886;28;20036;-78
2022/12/07 05:35:55;;;;;;;11.25;2.15;;;4.60;99.90;;;;;;5061445;28;20040;-77
2022/12/07 05:38:21;;;;;;;4.63;2.20;;;4.60;99.90;;;;;;5038013;28;20041;-80
2022/12/07 05:40:47;;;;;;;2.85;1.05;;;4.50;99.90;;;;;;5063242;28;20068;-78
2022/12/07 05:43:12;;;;;;;1.45;1.35;;;4.50;99.90;;;;;;5062261;28;20052;-76
2022/12/07 05:45:38;;;;;;;3.70;1.73;;;4.50;99.90;;;;;;5061396;28;20055;-79
2022/12/07 05:48:03;;;;;;;18.90;1.30;;;4.50;99.90;;;;;;5059079;28;20040;-75
2022/12/07 05:50:29;;;;;;;4.40;1.20;;;4.50;99.90;;;;;;5062360;28;20082;-80
2022/12/07 05:52:55;;;;;;;1.63;0.90;;;4.50;99.90;;;;;;5056849;28;20091;-78
2022/12/07 05:55:20;;;;;;;2.92;2.17;;;4.50;99.90;;;;;;5050554;28;20036;-78
2022/12/07 05:59:22;;;;;;;4.95;2.05;;;4.50;99.90;;;;;;5052700;28;20097;-81
2022/12/07 06:00:32;;;;;;;7.65;1.52;;;4.50;99.90;;;;;;5054930;28;20044;-79
2022/12/07 06:02:58;;;;;;;18.58;1.95;;;4.50;99.90;;;;;;5041711;28;20056;-80
2022/12/07 06:05:23;;;;;;;2.35;1.45;;;4.40;99.90;;;;;;5050233;28;20052;-82
2022/12/07 06:07:49;;;;;;;12.38;3.60;;;4.40;99.90;;;;;;5059630;28;20536;-82
2022/12/07 06:10:15;;;;;;;14.02;2.50;;;4.40;99.90;;;;;;5060752;28;20503;-77
2022/12/07 06:12:42;;;;;;;6.13;1.90;;;4.40;99.90;;;;;;5030140;28;20047;-82
2022/12/07 06:15:09;;;;;;;4.05;2.08;;;4.40;99.90;;;;;;5057489;28;20047;-83
2022/12/07 06:17:35;;;;;;;4.90;2.47;;;4.40;99.90;;;;;;5059333;28;20072;-79
2022/12/07 06:20:01;;;;;;;2.83;1.58;;;4.30;99.90;;;;;;5062239;28;20041;-79
2022/12/07 06:22:26;;;;;;;5.70;1.35;;;4.30;99.90;;;;;;5059605;28;20558;-82
2022/12/07 06:24:52;;;;;;;4.22;2.00;;;4.30;99.90;;;;;;5058495;28;20037;-82
2022/12/07 06:27:18;;;;;;;3.78;1.92;;;4.20;99.90;;;;;;5058856;28;20557;-80
2022/12/07 06:29:43;;;;;;;9.82;1.52;;;4.30;99.90;;;;;;5059447;28;20047;-80
2022/12/07 06:32:09;;;;;;;3.42;0.90;;;4.20;99.90;;;;;;5058429;28;20132;-81
2022/12/07 06:34:34;;;;;;;14.98;1.20;;;4.20;99.90;;;;;;5058608;28;20046;-78
2022/12/07 06:37:00;;;;;;;3.20;2.00;;;4.20;99.90;;;;;;5063534;28;20124;-81
2022/12/07 06:39:27;;;;;;;4.50;1.90;;;4.20;99.90;;;;;;5061641;28;20081;-82
2022/12/07 06:41:54;;;;;;;4.85;1.45;;;4.20;99.90;;;;;;5063592;28;20246;-76
2022/12/07 06:44:20;;;;;;;2.00;1.55;;;4.20;99.90;;;;;;5063539;28;20110;-79
2022/12/07 06:46:46;;;;;;;2.88;1.23;;;4.20;99.90;;;;;;5057884;28;20395;-78
2022/12/07 06:49:11;;;;;;;2.65;1.55;;;4.20;99.90;;;;;;5061743;28;20059;-78
2022/12/07 06:51:40;;;;;;;3.20;1.33;;;4.30;99.90;;;;;;5064598;28;20502;-78
2022/12/07 06:54:08;;;;;;;3.90;2.22;;;4.30;99.90;;;;;;5061370;28;20724;-77
2022/12/07 06:56:33;;;;;;;2.55;1.23;;;4.30;99.90;;;;;;5061358;28;20064;-78
2022/12/07 06:58:59;;;;;;;1.67;0.70;;;4.30;99.90;;;;;;5063478;28;20086;-82
2022/12/07 07:01:24;;;;;;;1.98;1.45;;;4.30;99.90;;;;;;5063462;28;20367;-79
2022/12/07 07:03:50;;;;;;;4.07;1.23;;;4.30;99.90;;;;;;5064912;28;20127;-76
2022/12/07 07:06:15;;;;;;;1.90;1.27;;;4.40;99.90;;;;;;5064839;28;20055;-81
2022/12/07 07:08:41;;;;;;;3.33;1.58;;;4.40;99.90;;;;;;5063648;28;20052;-85
2022/12/07 07:11:08;;;;;;;6.03;1.70;;;4.30;99.90;;;;;;5053098;28;20119;-75
2022/12/07 07:13:34;;;;;;;3.22;1.45;;;4.40;99.90;;;;;;5063717;28;20048;-77
2022/12/07 07:16:00;;;;;;;3.58;2.08;;;4.40;99.90;;;;;;5064575;28;20036;-79
2022/12/07 07:18:26;;;;;;;1.92;1.25;;;4.40;99.90;;;;;;5063290;28;20438;-77
2022/12/07 07:20:52;;;;;;;4.45;1.27;;;4.40;99.90;;;;;;5063734;28;20040;-75
2022/12/07 07:23:18;;;;;;;2.65;1.15;;;4.40;99.90;;;;;;5062905;28;20050;-81
2022/12/07 07:25:44;;;;;;;5.30;2.40;;;4.50;99.90;;;;;;5061259;28;20032;-79
2022/12/07 07:28:10;;;;;;;18.92;2.45;;;4.50;99.90;;;;;;5064180;28;20102;-75
2022/12/07 07:30:36;;;;;;;4.07;1.00;;;4.50;99.90;;;;;;5064966;28;20040;-77
2022/12/07 07:33:03;;;;;;;6.88;1.75;;;4.40;99.90;;;;;;5063172;28;20083;-78
2022/12/07 07:35:30;;;;;;;4.65;1.70;;;4.40;99.90;;;;;;5063889;28;20087;-79
2022/12/07 07:37:56;;;;;;;2.42;1.15;;;4.40;99.90;;;;;;5062624;28;20473;-75
2022/12/07 07:40:21;;;;;;;5.32;1.33;;;4.40;99.90;;;;;;5064299;28;20052;-78
2022/12/07 07:42:48;;;;;;;3.42;0.98;;;4.40;99.90;;;;;;5064057;28;20067;-78
2022/12/07 07:45:14;;;;;;;4.07;1.38;;;4.50;99.90;;;;;;5063492;28;20051;-77
2022/12/07 07:47:40;;;;;;;8.90;1.48;;;4.50;99.90;;;;;;5061660;28;20032;-75
2022/12/07 07:50:07;;;;;;;4.63;1.85;;;4.50;99.90;;;;;;5061999;28;20121;-78
2022/12/07 07:52:33;;;;;;;3.63;2.00;;;4.50;99.90;;;;;;5060974;28;20037;-79
2022/12/07 07:54:58;;;;;;;3.10;2.20;;;4.50;99.90;;;;;;5062110;28;20574;-75
2022/12/07 07:57:24;;;;;;;3.45;2.78;;;4.50;99.90;;;;;;5063857;28;20497;-76
2022/12/07 07:59:49;;;;;;;6.78;2.85;;;4.40;99.90;;;;;;5063207;28;20045;-77
2022/12/07 08:02:18;;;;;;;4.93;1.98;;;4.40;99.90;;;;;;5063762;28;20423;-77
2022/12/07 08:04:44;;;;;;;7.30;1.45;;;4.40;99.90;;;;;;5063382;28;20214;-75
2022/12/07 08:07:10;;;;;;;7.47;3.00;;;4.40;99.90;;;;;;5062018;28;20118;-78
2022/12/07 08:09:36;;;;;;;11.25;1.63;;;4.40;99.90;;;;;;5060842;28;20039;-78
2022/12/07 08:12:02;;;;;;;6.07;2.40;;;4.40;99.90;;;;;;5062889;28;20510;-77
2022/12/07 08:14:28;;;;;;;4.60;1.83;;;4.40;99.90;;;;;;5062185;28;20043;-77
2022/12/07 08:16:54;;;;;;;3.55;2.65;;;4.40;99.90;;;;;;5061589;28;20045;-78
2022/12/07 08:19:20;;;;;;;1.35;1.00;;;4.50;99.90;;;;;;5063225;28;20079;-78
2022/12/07 08:21:45;;;;;;;2.55;0.90;;;4.50;99.90;;;;;;5063312;28;20047;-75
2022/12/07 08:24:11;;;;;;;1.90;0.90;;;4.60;99.90;;;;;;5061978;28;20040;-75
2022/12/07 08:26:37;;;;;;;10.52;1.75;;;4.60;99.90;;;;;;5062902;28;20036;-78
2022/12/07 08:29:02;;;;;;;1.30;0.77;;;4.50;99.90;;;;;;5060777;28;20469;-76
2022/12/07 08:31:28;;;;;;;1.70;0.88;;;4.50;99.90;;;;;;5061794;28;20123;-77
2022/12/07 08:33:54;;;;;;;3.20;1.25;;;4.50;99.90;;;;;;5061266;28;20048;-78
2022/12/07 08:36:19;;;;;;;0.88;0.60;;;4.50;99.90;;;;;;5061324;28;20548;-78
2022/12/07 08:38:45;;;;;;;2.80;1.13;;;4.50;99.90;;;;;;5062079;28;20052;-75
2022/12/07 08:41:11;;;;;;;3.00;1.15;;;4.50;99.90;;;;;;5062611;28;20037;-79
2022/12/07 08:43:37;;;;;;;13.38;1.45;;;4.50;99.90;;;;;;5062391;28;20055;-78
2022/12/07 08:46:23;;;;;;;1.77;1.00;;;4.50;99.90;;;;;;5062016;28;20037;-75
2022/12/07 08:49:12;;;;;;;2.63;0.68;;;4.40;99.90;;;;;;5061171;28;20080;-77
2022/12/07 08:51:39;;;;;;;2.88;1.55;;;4.40;99.90;;;;;;5060910;28;20064;-73
2022/12/07 08:54:08;;;;;;;2.30;0.93;;;4.40;99.90;;;;;;5061393;28;20107;-77
2022/12/07 08:56:35;;;;;;;1.38;1.15;;;4.40;99.90;;;;;;5061354;28;20070;-75
2022/12/07 08:59:02;;;;;;;10.27;1.73;;;4.40;99.90;;;;;;5060073;28;20067;-79
2022/12/07 09:01:28;;;;;;;1.65;0.70;;;4.40;99.90;;;;;;5060796;28;20071;-79
2022/12/07 09:03:54;;;;;;;2.60;0.95;;;4.40;99.90;;;;;;5060841;28;20036;-76
2022/12/07 09:06:20;;;;;;;2.30;0.98;;;4.40;99.90;;;;;;5062355;28;20052;-76
2022/12/07 09:08:49;;;;;;;2.42;1.80;;;4.40;99.90;;;;;;5060347;28;20076;-78
2022/12/07 09:11:15;;;;;;;4.18;1.20;;;4.40;99.90;;;;;;5062838;28;20115;-74
2022/12/07 09:13:41;;;;;;;1.10;0.73;;;4.40;99.90;;;;;;5062428;28;20530;-76
2022/12/07 09:16:07;;;;;;;21.67;2.03;;;4.40;99.90;;;;;;5062042;28;20048;-76
2022/12/07 09:18:32;;;;;;;2.92;1.73;;;4.40;99.90;;;;;;5061780;28;20041;-79
2022/12/07 09:20:58;;;;;;;8.40;2.20;;;4.40;99.90;;;;;;5061644;28;20071;-78
2022/12/07 09:23:23;;;;;;;1.83;1.13;;;4.40;99.90;;;;;;5060449;28;20074;-77
2022/12/07 09:25:49;;;;;;;2.17;1.67;;;4.50;99.90;;;;;;5058790;28;20040;-79
2022/12/07 09:28:15;;;;;;;1.77;1.10;;;4.60;99.90;;;;;;5042095;28;20048;-78
2022/12/07 09:30:46;;;;;;;6.57;2.15;;;4.60;99.90;;;;;;5041793;28;20524;-76
2022/12/07 09:33:12;;;;;;;2.00;0.95;;;4.70;99.90;;;;;;5041773;28;20045;-76
2022/12/07 09:35:37;;;;;;;6.72;1.17;;;4.80;99.90;;;;;;5042001;28;20377;-75
2022/12/07 09:38:03;;;;;;;2.92;1.77;;;4.80;99.90;;;;;;5040754;28;20033;-78
2022/12/07 09:40:29;;;;;;;2.03;1.27;;;4.80;99.90;;;;;;5041718;28;20483;-75
2022/12/07 09:42:55;;;;;;;2.97;1.27;;;4.80;99.90;;;;;;5041941;28;20041;-76
2022/12/07 09:45:29;;;;;;;23.25;2.08;;;4.80;99.90;;;;;;5041932;28;20368;-79
2022/12/07 09:47:55;;;;;;;2.50;1.30;;;4.80;99.90;;;;;;5041813;28;20032;-73
2022/12/07 09:50:24;;;;;;;10.80;3.17;;;4.80;99.90;;;;;;5041702;28;20140;-78
2022/12/07 09:52:50;;;;;;;13.30;1.48;;;4.80;99.90;;;;;;5040038;28;20041;-79
2022/12/07 09:55:28;;;;;;;6.63;1.73;;;4.90;99.90;;;;;;5041777;28;20531;-76
2022/12/07 09:57:54;;;;;;;3.25;1.20;;;4.90;99.90;;;;;;5023200;28;20495;-78
2022/12/07 10:00:22;;;;;;;1.75;1.25;;;4.90;99.90;;;;;;5041461;28;20515;-77
2022/12/07 10:03:00;;;;;;;4.07;1.88;;;5.00;99.90;;;;;;5042194;28;20056;-75
2022/12/07 10:05:32;;;;;;;1.55;1.42;;;5.00;99.90;;;;;;5023067;28;20053;-79
2022/12/07 10:07:58;;;;;;;3.95;1.95;;;5.00;99.90;;;;;;5039214;28;20123;-78
2022/12/07 10:10:33;;;;;;;2.45;1.10;;;5.00;99.90;;;;;;5042269;28;20458;-77
2022/12/07 10:13:04;;;;;;;4.05;2.30;;;5.00;99.90;;;;;;5045054;28;20037;-78
2022/12/07 10:15:54;;;;;;;5.45;2.20;;;5.10;99.90;;;;;;5045618;28;20033;-78
2022/12/07 10:18:19;;;;;;;1.90;1.42;;;5.10;99.90;;;;;;5065304;28;20044;-77
2022/12/07 10:20:47;;;;;;;2.03;0.60;;;5.10;99.90;;;;;;5067033;28;20350;-78
2022/12/07 10:23:17;;;;;;;2.15;1.15;;;5.20;99.90;;;;;;5065596;28;20033;-76
2022/12/07 10:25:44;;;;;;;1.40;0.70;;;5.30;99.90;;;;;;5065285;28;20111;-78
2022/12/07 10:28:14;;;;;;;1.02;0.45;;;5.30;99.90;;;;;;5066925;28;20052;-76
2022/12/07 10:30:59;;;;;;;0.57;0.30;;;5.30;99.90;;;;;;5066392;28;20040;-77
2022/12/07 10:33:41;;;;;;;0.77;0.60;;;5.30;99.90;;;;;;5064649;28;20566;-79
2022/12/07 10:36:32;;;;;;;1.63;0.70;;;5.30;99.90;;;;;;5066148;28;20328;-79
2022/12/07 10:39:17;;;;;;;1.42;0.80;;;5.30;99.90;;;;;;5064182;28;20044;-78
2022/12/07 10:41:58;;;;;;;1.27;1.13;;;5.30;99.90;;;;;;5065130;28;20138;-79
2022/12/07 10:44:32;;;;;;;1.88;1.15;;;5.30;99.90;;;;;;5065301;28;20040;-75
2022/12/07 10:47:05;;;;;;;2.33;0.60;;;5.30;99.90;;;;;;5066253;28;20071;-74
2022/12/07 10:49:42;;;;;;;3.15;2.05;;;5.30;99.90;;;;;;5048083;28;20075;-79
2022/12/07 10:52:23;;;;;;;1.20;0.80;;;5.20;99.90;;;;;;5065673;28;20056;-79
2022/12/07 10:55:15;;;;;;;1.83;1.02;;;5.20;99.90;;;;;;5062268;28;20123;-78
2022/12/07 10:57:52;;;;;;;2.08;0.88;;;5.20;99.90;;;;;;5064595;28;20509;-79
2022/12/07 11:00:22;;;;;;;2.88;1.13;;;5.20;99.90;;;;;;5062348;28;20123;-77
2022/12/07 11:03:17;;;;;;;6.22;1.05;;;5.20;99.90;;;;;;5055894;28;20143;-77
2022/12/07 11:06:29;;;;;;;3.55;2.67;;;5.20;99.90;;;;;;5061128;28;20098;-79
2022/12/07 11:09:19;;;;;;;3.70;2.28;;;5.20;99.90;;;;;;5028447;28;20251;-73
2022/12/07 11:12:01;;;;;;;2.92;1.45;;;5.20;99.90;;;;;;5063769;28;20094;-79
2022/12/07 11:14:58;;;;;;;2.85;1.75;;;5.20;99.90;;;;;;5065247;28;20123;-87
2022/12/07 11:17:50;;;;;;;2.33;1.00;;;5.20;99.90;;;;;;5063638;28;20406;-80
2022/12/07 11:20:34;;;;;;;2.93;1.63;;;5.20;99.90;;;;;;5045260;28;20041;-82
2022/12/07 11:23:19;;;;;;;2.45;1.38;;;5.20;99.90;;;;;;5044217;28;20283;-88
2022/12/07 11:26:18;;;;;;;0.80;0.80;;;5.20;99.90;;;;;;5062973;28;20036;-83
2022/12/07 11:29:02;;;;;;;2.83;1.35;;;5.20;99.90;;;;;;5063623;28;20059;-79
2022/12/07 11:31:47;;;;;;;2.22;1.35;;;5.20;99.90;;;;;;5046525;28;20044;-77
2022/12/07 11:34:36;;;;;;;1.48;1.13;;;5.30;99.90;;;;;;5054182;28;20041;-76
2022/12/07 11:37:09;;;;;;;4.30;1.25;;;5.30;99.90;;;;;;5054633;28;20495;-82
2022/12/07 11:39:54;;;;;;;6.15;1.80;;;5.30;99.90;;;;;;5047172;28;20418;-81
2022/12/07 11:42:27;;;;;;;1.08;0.68;;;5.40;99.90;;;;;;5062084;28;20541;-81
2022/12/07 11:45:15;;;;;;;1.88;0.70;;;5.40;99.90;;;;;;5064628;28;20052;-81
2022/12/07 11:48:01;;;;;;;1.23;0.50;;;5.40;99.90;;;;;;5064283;28;20120;-80
2022/12/07 11:50:39;;;;;;;0.77;0.50;;;5.40;99.90;;;;;;5063771;28;20499;-87
2022/12/07 11:53:08;;;;;;;2.50;0.88;;;5.40;99.90;;;;;;5061265;28;20114;-85
2022/12/07 11:55:55;;;;;;;2.42;1.30;;;5.40;99.90;;;;;;5063437;28;20455;-81
2022/12/07 11:58:33;;;;;;;2.13;0.95;;;5.40;99.90;;;;;;5061503;28;20048;-80
2022/12/07 12:01:23;;;;;;;2.55;1.27;;;5.40;99.90;;;;;;5052402;28;20070;-86
2022/12/07 12:04:09;;;;;;;1.35;0.70;;;5.40;99.90;;;;;;5063651;28;20100;-78
2022/12/07 12:06:40;;;;;;;4.60;1.23;;;5.40;99.90;;;;;;5062370;28;20437;-78
2022/12/07 12:09:23;;;;;;;1.35;0.80;;;5.40;99.90;;;;;;5061827;28;20088;-78
2022/12/07 12:12:01;;;;;;;1.58;0.80;;;5.50;99.90;;;;;;5063328;28;20542;-75
2022/12/07 12:14:48;;;;;;;3.60;1.00;;;5.40;99.90;;;;;;5063184;28;20122;-78
2022/12/07 12:17:45;;;;;;;2.17;0.60;;;5.50;99.90;;;;;;5061451;28;20052;-77
2022/12/07 12:20:45;;;;;;;1.85;1.02;;;5.50;99.90;;;;;;5061053;28;20316;-75
2022/12/07 12:23:20;;;;;;;1.33;0.75;;;5.50;99.90;;;;;;5056231;28;20094;-78
2022/12/07 12:25:52;;;;;;;0.75;0.75;;;5.40;99.90;;;;;;5062178;28;20049;-76
2022/12/07 12:28:29;;;;;;;3.13;1.45;;;5.40;99.90;;;;;;5063742;28;20430;-77
2022/12/07 12:31:36;;;;;;;3.45;1.08;;;5.40;99.90;;;;;;5063122;28;20088;-77
2022/12/07 12:34:05;;;;;;;1.52;1.42;;;5.40;99.90;;;;;;5041832;28;20071;-79
2022/12/07 12:36:44;;;;;;;2.92;1.98;;;5.40;99.90;;;;;;5039989;28;20037;-75
2022/12/07 12:39:16;;;;;;;1.95;0.90;;;5.50;99.90;;;;;;5041161;28;20049;-75
2022/12/07 12:42:05;;;;;;;7.25;1.27;;;5.50;99.90;;;;;;5041563;28;20110;-77
2022/12/07 12:44:31;;;;;;;1.55;0.90;;;5.50;99.90;;;;;;5041264;28;20120;-78
2022/12/07 12:47:24;;;;;;;5.30;1.80;;;5.50;99.90;;;;;;5039319;28;20110;-77
2022/12/07 12:50:21;;;;;;;1.90;0.63;;;5.50;99.90;;;;;;5039744;28;20049;-78
2022/12/07 12:52:54;;;;;;;0.98;0.90;;;5.50;99.90;;;;;;5041835;28;20256;-78
2022/12/07 12:55:29;;;;;;;3.95;1.58;;;5.60;99.90;;;;;;5041383;28;20138;-74
2022/12/07 12:58:19;;;;;;;1.85;1.38;;;5.50;99.90;;;;;;5042274;28;20041;-78
2022/12/07 13:01:26;;;;;;;2.50;0.68;;;5.50;99.90;;;;;;5042826;28;20124;-75
2022/12/07 13:03:54;;;;;;;3.05;1.00;;;5.50;99.90;;;;;;5041693;28;20534;-78
2022/12/07 13:06:32;;;;;;;1.17;0.73;;;5.50;99.90;;;;;;5041647;28;20067;-74
2022/12/07 13:09:00;;;;;;;0.80;0.68;;;5.50;99.90;;;;;;5042034;28;20045;-77
2022/12/07 13:11:32;;;;;;;1.08;0.50;;;5.40;99.90;;;;;;5054998;28;20051;-76
2022/12/07 13:14:37;;;;;;;2.60;1.02;;;5.40;99.90;;;;;;5059140;28;20048;-80
2022/12/07 13:17:03;;;;;;;0.82;0.73;;;5.40;99.90;;;;;;5054397;28;20498;-79
2022/12/07 13:19:41;;;;;;;2.58;1.10;;;5.40;99.90;;;;;;5062134;28;20040;-77
2022/12/07 13:22:31;;;;;;;0.60;0.35;;;5.30;99.90;;;;;;5059779;28;20132;-77